sensor_id;sensor_type;location;lat;lon;timestamp;pressure;altitude;pressure_sealevel;temperature;humidity
62710;BME280;48770;51.624;5.886;2022-09-09T00:04:28;100673.19;;;23.45;44.44
62710;BME280;48770;51.624;5.886;2022-09-09T00:07:03;100669.97;;;23.43;44.43
62710;BME280;48770;51.624;5.886;2022-09-09T00:09:31;100672.38;;;23.45;44.56
62710;BME280;48770;51.624;5.886;2022-09-09T00:17:38;100668.28;;;23.38;44.59
62710;BME280;48770;51.624;5.886;2022-09-09T00:20:13;100662.25;;;23.36;44.30
62710;BME280;48770;51.624;5.886;2022-09-09T00:22:51;100661.47;;;23.36;44.62
62710;BME280;48770;51.624;5.886;2022-09-09T00:25:39;100662.59;;;23.31;44.56
62710;BME280;48770;51.624;5.886;2022-09-09T00:28:16;100662.22;;;23.33;44.45
62710;BME280;48770;51.624;5.886;2022-09-09T00:30:42;100651.81;;;23.30;44.76
62710;BME280;48770;51.624;5.886;2022-09-09T00:33:11;100664.56;;;23.31;44.68
62710;BME280;48770;51.624;5.886;2022-09-09T00:35:44;100651.81;;;23.30;44.72
62710;BME280;48770;51.624;5.886;2022-09-09T00:38:28;100663.72;;;23.27;44.32
62710;BME280;48770;51.624;5.886;2022-09-09T00:41:26;100659.25;;;23.22;44.63
62710;BME280;48770;51.624;5.886;2022-09-09T00:44:07;100652.06;;;23.21;44.52
62710;BME280;48770;51.624;5.886;2022-09-09T00:46:50;100655.28;;;23.00;44.78
62710;BME280;48770;51.624;5.886;2022-09-09T00:55:35;100654.22;;;23.08;44.43
62710;BME280;48770;51.624;5.886;2022-09-09T00:58:06;100652.25;;;23.09;44.52
62710;BME280;48770;51.624;5.886;2022-09-09T01:00:43;100647.47;;;23.10;44.39
62710;BME280;48770;51.624;5.886;2022-09-09T01:03:22;100653.44;;;23.08;44.56
62710;BME280;48770;51.624;5.886;2022-09-09T01:06:01;100644.63;;;23.06;44.81
62710;BME280;48770;51.624;5.886;2022-09-09T01:08:55;100641.03;;;23.05;44.70
62710;BME280;48770;51.624;5.886;2022-09-09T01:12:06;100643.78;;;23.02;44.61
62710;BME280;48770;51.624;5.886;2022-09-09T01:17:26;100642.53;;;22.99;44.44
62710;BME280;48770;51.624;5.886;2022-09-09T01:20:13;100632.56;;;22.98;44.37
62710;BME280;48770;51.624;5.886;2022-09-09T01:23:04;100629.34;;;22.96;44.38
62710;BME280;48770;51.624;5.886;2022-09-09T01:28:25;100636.09;;;22.95;44.29
62710;BME280;48770;51.624;5.886;2022-09-09T01:30:52;100631.69;;;22.94;44.88
62710;BME280;48770;51.624;5.886;2022-09-09T01:33:18;100634.47;;;22.94;44.44
62710;BME280;48770;51.624;5.886;2022-09-09T01:36:03;100625.69;;;22.92;44.66
62710;BME280;48770;51.624;5.886;2022-09-09T01:38:32;100638.00;;;22.91;44.48
62710;BME280;48770;51.624;5.886;2022-09-09T01:40:58;100634.03;;;22.92;44.20
62710;BME280;48770;51.624;5.886;2022-09-09T01:43:25;100634.41;;;22.91;44.63
62710;BME280;48770;51.624;5.886;2022-09-09T01:45:54;100630.84;;;22.90;44.35
62710;BME280;48770;51.624;5.886;2022-09-09T01:48:22;100628.03;;;22.90;44.72
62710;BME280;48770;51.624;5.886;2022-09-09T01:50:48;100629.19;;;22.89;44.54
62710;BME280;48770;51.624;5.886;2022-09-09T01:53:15;100634.34;;;22.87;44.80
62710;BME280;48770;51.624;5.886;2022-09-09T01:55:48;100627.94;;;22.87;44.31
62710;BME280;48770;51.624;5.886;2022-09-09T02:01:26;100623.03;;;22.80;44.25
62710;BME280;48770;51.624;5.886;2022-09-09T02:03:57;100623.41;;;22.78;44.41
62710;BME280;48770;51.624;5.886;2022-09-09T02:08:53;100628.19;;;22.78;44.53
62710;BME280;48770;51.624;5.886;2022-09-09T02:11:23;100617.41;;;22.76;44.67
62710;BME280;48770;51.624;5.886;2022-09-09T02:13:52;100617.78;;;22.75;44.17
62710;BME280;48770;51.624;5.886;2022-09-09T02:16:42;100616.91;;;22.71;44.47
62710;BME280;48770;51.624;5.886;2022-09-09T02:19:23;100612.94;;;22.72;44.72
62710;BME280;48770;51.624;5.886;2022-09-09T02:21:52;100619.69;;;22.71;44.33
62710;BME280;48770;51.624;5.886;2022-09-09T02:24:19;100606.94;;;22.70;44.63
62710;BME280;48770;51.624;5.886;2022-09-09T02:26:46;100610.91;;;22.69;44.64
62710;BME280;48770;51.624;5.886;2022-09-09T02:29:26;100609.28;;;22.68;44.57
62710;BME280;48770;51.624;5.886;2022-09-09T02:31:56;100598.50;;;22.66;44.84
62710;BME280;48770;51.624;5.886;2022-09-09T02:34:24;100601.66;;;22.65;44.50
62710;BME280;48770;51.624;5.886;2022-09-09T02:36:53;100604.47;;;22.65;44.53
62710;BME280;48770;51.624;5.886;2022-09-09T02:39:19;100600.41;;;22.62;44.69
62710;BME280;48770;51.624;5.886;2022-09-09T02:41:44;100592.03;;;22.62;44.49
62710;BME280;48770;51.624;5.886;2022-09-09T02:44:11;100605.53;;;22.60;44.52
62710;BME280;48770;51.624;5.886;2022-09-09T02:47:16;100599.91;;;22.57;44.65
62710;BME280;48770;51.624;5.886;2022-09-09T02:52:30;100599.47;;;22.55;44.84
62710;BME280;48770;51.624;5.886;2022-09-09T02:55:08;100609.00;;;22.54;44.35
62710;BME280;48770;51.624;5.886;2022-09-09T02:57:37;100609.38;;;22.52;44.80
62710;BME280;48770;51.624;5.886;2022-09-09T03:00:03;100609.38;;;22.52;44.36
62710;BME280;48770;51.624;5.886;2022-09-09T03:02:29;100614.16;;;22.52;44.40
62710;BME280;48770;51.624;5.886;2022-09-09T03:04:55;100612.53;;;22.51;44.49
62710;BME280;48770;51.624;5.886;2022-09-09T03:07:21;100610.13;;;22.49;44.84
62710;BME280;48770;51.624;5.886;2022-09-09T03:09:46;100614.91;;;22.49;44.50
62710;BME280;48770;51.624;5.886;2022-09-09T03:12:12;100617.69;;;22.49;44.52
62710;BME280;48770;51.624;5.886;2022-09-09T03:14:38;100606.91;;;22.47;44.66
62710;BME280;48770;51.624;5.886;2022-09-09T03:17:04;100598.91;;;22.45;44.37
62710;BME280;48770;51.624;5.886;2022-09-09T03:19:30;100612.03;;;22.45;44.34
62710;BME280;48770;51.624;5.886;2022-09-09T03:21:55;100609.63;;;22.43;44.52
62710;BME280;48770;51.624;5.886;2022-09-09T03:24:21;100609.19;;;22.41;44.73
62710;BME280;48770;51.624;5.886;2022-09-09T03:26:47;100615.56;;;22.42;44.83
62710;BME280;48770;51.624;5.886;2022-09-09T03:29:13;100605.97;;;22.39;44.61
62710;BME280;48770;51.624;5.886;2022-09-09T03:31:39;100610.75;;;22.39;44.80
62710;BME280;48770;51.624;5.886;2022-09-09T03:34:04;100605.16;;;22.39;44.89
62710;BME280;48770;51.624;5.886;2022-09-09T03:36:30;100609.09;;;22.38;44.48
62710;BME280;48770;51.624;5.886;2022-09-09T03:38:56;100603.09;;;22.36;44.71
62710;BME280;48770;51.624;5.886;2022-09-09T03:41:22;100600.31;;;22.36;44.77
62710;BME280;48770;51.624;5.886;2022-09-09T03:43:52;100605.06;;;22.35;44.51
62710;BME280;48770;51.624;5.886;2022-09-09T03:46:18;100604.25;;;22.35;44.85
62710;BME280;48770;51.624;5.886;2022-09-09T03:48:44;100618.56;;;22.33;44.53
62710;BME280;48770;51.624;5.886;2022-09-09T03:51:10;100615.34;;;22.31;44.92
62710;BME280;48770;51.624;5.886;2022-09-09T03:53:35;100618.13;;;22.31;44.91
62710;BME280;48770;51.624;5.886;2022-09-09T03:56:04;100618.50;;;22.30;44.94
62710;BME280;48770;51.624;5.886;2022-09-09T03:58:31;100610.50;;;22.28;44.53
62710;BME280;48770;51.624;5.886;2022-09-09T04:00:59;100608.91;;;22.27;44.87
62710;BME280;48770;51.624;5.886;2022-09-09T04:03:25;100601.72;;;22.26;44.45
62710;BME280;48770;51.624;5.886;2022-09-09T04:05:55;100611.25;;;22.25;44.74
62710;BME280;48770;51.624;5.886;2022-09-09T04:08:21;100616.00;;;22.25;44.61
62710;BME280;48770;51.624;5.886;2022-09-09T04:10:48;100609.63;;;22.24;44.70
62710;BME280;48770;51.624;5.886;2022-09-09T04:13:15;100609.19;;;22.22;44.83
62710;BME280;48770;51.624;5.886;2022-09-09T04:15:42;100612.00;;;22.22;45.02
62710;BME280;48770;51.624;5.886;2022-09-09T04:18:09;100618.72;;;22.21;44.82
62710;BME280;48770;51.624;5.886;2022-09-09T04:20:34;100604.00;;;22.21;44.88
62710;BME280;48770;51.624;5.886;2022-09-09T04:23:00;100604.38;;;22.19;44.88
62710;BME280;48770;51.624;5.886;2022-09-09T04:25:25;100598.00;;;22.19;45.20
62710;BME280;48770;51.624;5.886;2022-09-09T04:27:55;100596.75;;;22.16;44.83
62710;BME280;48770;51.624;5.886;2022-09-09T04:30:21;100595.16;;;22.15;45.26
62710;BME280;48770;51.624;5.886;2022-09-09T04:32:46;100592.34;;;22.15;44.97
62710;BME280;48770;51.624;5.886;2022-09-09T04:35:12;100596.31;;;22.14;45.26
62710;BME280;48770;51.624;5.886;2022-09-09T04:37:37;100590.75;;;22.14;45.30
62710;BME280;48770;51.624;5.886;2022-09-09T04:40:03;100587.53;;;22.12;45.15
62710;BME280;48770;51.624;5.886;2022-09-09T04:42:28;100592.25;;;22.11;44.65
62710;BME280;48770;51.624;5.886;2022-09-09T04:44:53;100590.66;;;22.10;44.93
62710;BME280;48770;51.624;5.886;2022-09-09T04:47:19;100589.84;;;22.10;45.13
62710;BME280;48770;51.624;5.886;2022-09-09T04:49:44;100591.81;;;22.09;45.37
62710;BME280;48770;51.624;5.886;2022-09-09T04:52:10;100591.03;;;22.09;45.24
62710;BME280;48770;51.624;5.886;2022-09-09T04:54:35;100590.22;;;22.08;45.16
62710;BME280;48770;51.624;5.886;2022-09-09T04:57:00;100583.03;;;22.07;45.39
62710;BME280;48770;51.624;5.886;2022-09-09T04:59:26;100587.78;;;22.07;45.53
62710;BME280;48770;51.624;5.886;2022-09-09T05:01:51;100585.38;;;22.05;45.66
62710;BME280;48770;51.624;5.886;2022-09-09T05:04:16;100579.81;;;22.05;45.34
62710;BME280;48770;51.624;5.886;2022-09-09T05:06:41;100577.41;;;22.04;45.66
62710;BME280;48770;51.624;5.886;2022-09-09T05:09:07;100576.56;;;22.03;45.62
62710;BME280;48770;51.624;5.886;2022-09-09T05:11:34;100572.97;;;22.03;45.71
62710;BME280;48770;51.624;5.886;2022-09-09T05:14:01;100575.75;;;22.03;45.53
62710;BME280;48770;51.624;5.886;2022-09-09T05:16:27;100573.34;;;22.01;45.35
62710;BME280;48770;51.624;5.886;2022-09-09T05:18:52;100584.84;;;22.00;45.35
62710;BME280;48770;51.624;5.886;2022-09-09T05:21:19;100575.31;;;22.01;45.46
62710;BME280;48770;51.624;5.886;2022-09-09T05:23:45;100570.94;;;22.00;45.38
62710;BME280;48770;51.624;5.886;2022-09-09T05:26:14;100580.44;;;21.99;45.88
62710;BME280;48770;51.624;5.886;2022-09-09T05:28:40;100576.06;;;21.98;45.43
62710;BME280;48770;51.624;5.886;2022-09-09T05:31:07;100577.22;;;21.97;45.70
62710;BME280;48770;51.624;5.886;2022-09-09T05:33:38;100580.00;;;21.97;45.46
62710;BME280;48770;51.624;5.886;2022-09-09T05:36:07;100573.63;;;21.96;45.98
62710;BME280;48770;51.624;5.886;2022-09-09T05:38:34;100568.44;;;21.95;45.86
62710;BME280;48770;51.624;5.886;2022-09-09T05:41:00;100574.81;;;21.95;45.72
62710;BME280;48770;51.624;5.886;2022-09-09T05:43:26;100575.19;;;21.94;45.58
62710;BME280;48770;51.624;5.886;2022-09-09T05:46:03;100580.31;;;21.92;45.84
62710;BME280;48770;51.624;5.886;2022-09-09T05:48:35;100569.19;;;21.92;45.57
62710;BME280;48770;51.624;5.886;2022-09-09T05:51:00;100579.88;;;21.90;45.59
62710;BME280;48770;51.624;5.886;2022-09-09T05:53:28;100577.91;;;21.90;46.06
62710;BME280;48770;51.624;5.886;2022-09-09T05:56:20;100579.44;;;21.88;45.89
62710;BME280;48770;51.624;5.886;2022-09-09T05:58:47;100580.59;;;21.87;45.93
62710;BME280;48770;51.624;5.886;2022-09-09T06:01:15;100579.44;;;21.88;45.64
62710;BME280;48770;51.624;5.886;2022-09-09T06:03:42;100579.44;;;21.88;45.74
62710;BME280;48770;51.624;5.886;2022-09-09T06:06:10;100586.97;;;21.87;46.12
62710;BME280;48770;51.624;5.886;2022-09-09T06:08:38;100586.19;;;21.87;46.08
62710;BME280;48770;51.624;5.886;2022-09-09T06:11:04;100593.72;;;21.86;45.77
62710;BME280;48770;51.624;5.886;2022-09-09T06:13:31;100592.88;;;21.85;45.78
62710;BME280;48770;51.624;5.886;2022-09-09T06:15:57;100588.50;;;21.84;45.62
62710;BME280;48770;51.624;5.886;2022-09-09T06:18:23;100592.44;;;21.83;45.72
62710;BME280;48770;51.624;5.886;2022-09-09T06:21:16;100590.41;;;21.80;45.78
62710;BME280;48770;51.624;5.886;2022-09-09T06:23:42;100599.56;;;21.81;46.26
62710;BME280;48770;51.624;5.886;2022-09-09T06:26:15;100603.94;;;21.82;45.93
62710;BME280;48770;51.624;5.886;2022-09-09T06:28:42;100598.31;;;21.78;46.02
62710;BME280;48770;51.624;5.886;2022-09-09T06:31:10;100597.13;;;21.79;46.19
62710;BME280;48770;51.624;5.886;2022-09-09T06:33:41;100596.31;;;21.79;46.39
62710;BME280;48770;51.624;5.886;2022-09-09T06:36:17;100592.75;;;21.78;46.47
62710;BME280;48770;51.624;5.886;2022-09-09T06:38:43;100596.69;;;21.77;46.38
62710;BME280;48770;51.624;5.886;2022-09-09T06:41:09;100595.53;;;21.78;46.09
62710;BME280;48770;51.624;5.886;2022-09-09T06:43:35;100582.78;;;21.77;46.47
62710;BME280;48770;51.624;5.886;2022-09-09T06:46:12;100590.31;;;21.77;46.65
62710;BME280;48770;51.624;5.886;2022-09-09T06:48:39;100593.47;;;21.75;46.47
62710;BME280;48770;51.624;5.886;2022-09-09T06:51:11;100597.06;;;21.76;46.65
62710;BME280;48770;51.624;5.886;2022-09-09T06:53:37;100589.88;;;21.75;46.33
62710;BME280;48770;51.624;5.886;2022-09-09T06:58:35;100591.06;;;21.74;46.40
62710;BME280;48770;51.624;5.886;2022-09-09T07:01:05;100597.44;;;21.74;46.59
62710;BME280;48770;51.624;5.886;2022-09-09T07:03:31;100591.06;;;21.74;46.69
62710;BME280;48770;51.624;5.886;2022-09-09T07:05:56;100589.44;;;21.73;47.01
62710;BME280;48770;51.624;5.886;2022-09-09T07:08:22;100599.78;;;21.72;46.86
62710;BME280;48770;51.624;5.886;2022-09-09T07:10:48;100599.78;;;21.72;47.03
62710;BME280;48770;51.624;5.886;2022-09-09T07:13:13;100590.63;;;21.72;46.78
62710;BME280;48770;51.624;5.886;2022-09-09T07:15:41;100589.44;;;21.73;46.94
62710;BME280;48770;51.624;5.886;2022-09-09T07:18:06;100588.63;;;21.72;46.70
62710;BME280;48770;51.624;5.886;2022-09-09T07:20:32;100587.84;;;21.72;46.95
62710;BME280;48770;51.624;5.886;2022-09-09T07:22:57;100589.00;;;21.71;46.75
62710;BME280;48770;51.624;5.886;2022-09-09T07:25:24;100588.63;;;21.72;46.88
62710;BME280;48770;51.624;5.886;2022-09-09T07:27:53;100590.97;;;21.70;46.62
62710;BME280;48770;51.624;5.886;2022-09-09T07:30:18;100588.19;;;21.70;46.79
62710;BME280;48770;51.624;5.886;2022-09-09T07:32:44;100589.00;;;21.71;47.04
62710;BME280;48770;51.624;5.886;2022-09-09T07:35:10;100585.41;;;21.70;47.24
62710;BME280;48770;51.624;5.886;2022-09-09T07:37:37;100594.94;;;21.69;46.67
62710;BME280;48770;51.624;5.886;2022-09-09T07:40:03;100591.78;;;21.71;46.81
62710;BME280;48770;51.624;5.886;2022-09-09T07:42:29;100592.16;;;21.69;47.05
62710;BME280;48770;51.624;5.886;2022-09-09T07:44:55;100591.34;;;21.69;46.99
62710;BME280;48770;51.624;5.886;2022-09-09T07:47:20;100591.34;;;21.69;46.83
62710;BME280;48770;51.624;5.886;2022-09-09T07:49:46;100595.75;;;21.70;46.70
62710;BME280;48770;51.624;5.886;2022-09-09T07:52:12;100594.94;;;21.69;46.76
62710;BME280;48770;51.624;5.886;2022-09-09T07:54:37;100596.09;;;21.68;47.19
62710;BME280;48770;51.624;5.886;2022-09-09T07:57:03;100606.06;;;21.69;46.85
62710;BME280;48770;51.624;5.886;2022-09-09T07:59:29;100595.75;;;21.70;47.41
62710;BME280;48770;51.624;5.886;2022-09-09T08:01:55;100595.75;;;21.70;47.03
62710;BME280;48770;51.624;5.886;2022-09-09T08:04:22;100597.34;;;21.71;47.60
62710;BME280;48770;51.624;5.886;2022-09-09T08:06:52;100594.94;;;21.69;47.45
62710;BME280;48770;51.624;5.886;2022-09-09T08:09:19;100593.31;;;21.68;47.04
62710;BME280;48770;51.624;5.886;2022-09-09T08:11:45;100596.91;;;21.69;47.21
62710;BME280;48770;51.624;5.886;2022-09-09T08:14:11;100602.13;;;21.70;47.23
62710;BME280;48770;51.624;5.886;2022-09-09T08:16:40;100609.66;;;21.70;47.28
62710;BME280;48770;51.624;5.886;2022-09-09T08:19:06;100604.09;;;21.70;47.62
62710;BME280;48770;51.624;5.886;2022-09-09T08:21:36;100614.41;;;21.69;47.44
62710;BME280;48770;51.624;5.886;2022-09-09T08:24:02;100614.41;;;21.69;47.42
62710;BME280;48770;51.624;5.886;2022-09-09T08:26:30;100617.63;;;21.71;47.55
62710;BME280;48770;51.624;5.886;2022-09-09T08:28:58;100622.41;;;21.71;47.73
62710;BME280;48770;51.624;5.886;2022-09-09T08:31:27;100621.59;;;21.70;47.55
62710;BME280;48770;51.624;5.886;2022-09-09T08:33:53;100618.81;;;21.70;47.67
62710;BME280;48770;51.624;5.886;2022-09-09T08:36:21;100622.75;;;21.69;47.84
62710;BME280;48770;51.624;5.886;2022-09-09T08:38:55;100617.19;;;21.69;47.58
62710;BME280;48770;51.624;5.886;2022-09-09T08:41:50;100622.31;;;21.67;47.66
62710;BME280;48770;51.624;5.886;2022-09-09T08:52:36;100622.84;;;21.73;47.72
62710;BME280;48770;51.624;5.886;2022-09-09T08:55:20;100622.47;;;21.74;47.85
62710;BME280;48770;51.624;5.886;2022-09-09T08:57:49;100626.06;;;21.75;48.01
62710;BME280;48770;51.624;5.886;2022-09-09T09:00:17;100629.66;;;21.75;48.46
62710;BME280;48770;51.624;5.886;2022-09-09T09:03:12;100628.41;;;21.73;48.06
62710;BME280;48770;51.624;5.886;2022-09-09T09:06:01;100637.56;;;21.73;48.06
62710;BME280;48770;51.624;5.886;2022-09-09T09:08:43;100632.34;;;21.72;48.33
62710;BME280;48770;51.624;5.886;2022-09-09T09:11:13;100627.97;;;21.71;48.54
62710;BME280;48770;51.624;5.886;2022-09-09T09:14:00;100630.38;;;21.72;48.61
62710;BME280;48770;51.624;5.886;2022-09-09T09:16:34;100635.59;;;21.74;48.42
62710;BME280;48770;51.624;5.886;2022-09-09T09:19:03;100631.25;;;21.76;47.92
62710;BME280;48770;51.624;5.886;2022-09-09T09:21:50;100626.94;;;21.79;48.44
62710;BME280;48770;51.624;5.886;2022-09-09T09:24:27;100630.16;;;21.81;48.16
62710;BME280;48770;51.624;5.886;2022-09-09T09:26:59;100633.38;;;21.83;48.21
62710;BME280;48770;51.624;5.886;2022-09-09T09:29:29;100632.69;;;21.86;48.01
62710;BME280;48770;51.624;5.886;2022-09-09T09:31:56;100635.53;;;21.90;47.98
62710;BME280;48770;51.624;5.886;2022-09-09T09:34:24;100638.03;;;21.95;48.15
62710;BME280;48770;51.624;5.886;2022-09-09T09:36:55;100630.56;;;21.99;47.90
62710;BME280;48770;51.624;5.886;2022-09-09T09:39:32;100630.31;;;22.04;48.04
62710;BME280;48770;51.624;5.886;2022-09-09T09:42:11;100631.97;;;22.08;47.92
62710;BME280;48770;51.624;5.886;2022-09-09T09:44:40;100629.28;;;22.12;47.45
62710;BME280;48770;51.624;5.886;2022-09-09T09:47:14;100635.00;;;22.19;47.32
62710;BME280;48770;51.624;5.886;2022-09-09T09:49:54;100643.06;;;22.24;47.81
62710;BME280;48770;51.624;5.886;2022-09-09T09:52:25;100640.34;;;22.28;47.45
62710;BME280;48770;51.624;5.886;2022-09-09T09:54:52;100628.91;;;22.33;47.12
62710;BME280;48770;51.624;5.886;2022-09-09T09:57:28;100630.25;;;22.39;47.05
62710;BME280;48770;51.624;5.886;2022-09-09T10:02:38;100635.13;;;22.45;46.83
62710;BME280;48770;51.624;5.886;2022-09-09T10:07:34;100635.63;;;22.51;47.01
62710;BME280;48770;51.624;5.886;2022-09-09T10:09:59;100634.09;;;22.54;46.88
62710;BME280;48770;51.624;5.886;2022-09-09T10:21:10;100632.97;;;22.58;46.73
62710;BME280;48770;51.624;5.886;2022-09-09T10:26:25;100639.03;;;22.64;46.37
62710;BME280;48770;51.624;5.886;2022-09-09T10:37:58;100645.53;;;22.68;46.67
62710;BME280;48770;51.624;5.886;2022-09-09T10:40:38;100650.34;;;22.71;46.50
62710;BME280;48770;51.624;5.886;2022-09-09T10:43:15;100642.06;;;22.74;46.77
62710;BME280;48770;51.624;5.886;2022-09-09T10:45:53;100632.88;;;22.74;46.52
62710;BME280;48770;51.624;5.886;2022-09-09T10:56:58;100641.56;;;22.69;46.67
62710;BME280;48770;51.624;5.886;2022-09-09T10:59:39;100643.91;;;22.67;46.59
62710;BME280;48770;51.624;5.886;2022-09-09T11:04:44;100647.06;;;22.65;46.83
62710;BME280;48770;51.624;5.886;2022-09-09T11:07:13;100643.81;;;22.63;46.64
62710;BME280;48770;51.624;5.886;2022-09-09T11:09:48;100652.56;;;22.62;46.83
62710;BME280;48770;51.624;5.886;2022-09-09T11:12:19;100654.91;;;22.60;46.52
62710;BME280;48770;51.624;5.886;2022-09-09T11:14:59;100650.88;;;22.57;46.67
62710;BME280;48770;51.624;5.886;2022-09-09T11:17:33;100649.25;;;22.56;47.05
62710;BME280;48770;51.624;5.886;2022-09-09T11:20:01;100655.22;;;22.55;46.86
62710;BME280;48770;51.624;5.886;2022-09-09T11:22:32;100656.38;;;22.54;46.96
62710;BME280;48770;51.624;5.886;2022-09-09T11:25:21;100651.56;;;22.51;47.36
62710;BME280;48770;51.624;5.886;2022-09-09T11:28:06;100661.09;;;22.50;47.57
62710;BME280;48770;51.624;5.886;2022-09-09T11:36:08;100660.22;;;22.45;47.84
62710;BME280;48770;51.624;5.886;2022-09-09T11:38:46;100662.19;;;22.45;47.79
62710;BME280;48770;51.624;5.886;2022-09-09T11:41:13;100661.44;;;22.48;48.18
62710;BME280;48770;51.624;5.886;2022-09-09T11:43:44;100659.91;;;22.51;48.24
62710;BME280;48770;51.624;5.886;2022-09-09T11:46:12;100657.56;;;22.53;48.08
62710;BME280;48770;51.624;5.886;2022-09-09T11:48:43;100649.25;;;22.56;47.97
62710;BME280;48770;51.624;5.886;2022-09-09T11:51:27;100663.63;;;22.58;47.64
62710;BME280;48770;51.624;5.886;2022-09-09T11:53:55;100668.09;;;22.63;47.71
62710;BME280;48770;51.624;5.886;2022-09-09T11:56:43;100667.00;;;22.67;47.75
62710;BME280;48770;51.624;5.886;2022-09-09T11:59:24;100655.56;;;22.72;47.73
62710;BME280;48770;51.624;5.886;2022-09-09T12:02:11;100653.69;;;22.80;47.41
62710;BME280;48770;51.624;5.886;2022-09-09T12:04:40;100651.44;;;22.86;47.87
62710;BME280;48770;51.624;5.886;2022-09-09T12:09:52;100646.88;;;22.97;47.08
62710;BME280;48770;51.624;5.886;2022-09-09T12:12:28;100644.56;;;23.02;47.25
62710;BME280;48770;51.624;5.886;2022-09-09T12:17:41;100645.13;;;23.12;47.61
62710;BME280;48770;51.624;5.886;2022-09-09T12:25:57;100647.34;;;23.25;47.45
62710;BME280;48770;51.624;5.886;2022-09-09T12:31:12;100645.16;;;23.38;47.35
62710;BME280;48770;51.624;5.886;2022-09-09T12:33:43;100646.03;;;23.42;46.86
62710;BME280;48770;51.624;5.886;2022-09-09T12:36:16;100634.13;;;23.45;46.73
62710;BME280;48770;51.624;5.886;2022-09-09T12:38:43;100630.97;;;23.47;46.73
62710;BME280;48770;51.624;5.886;2022-09-09T12:41:24;100629.41;;;23.49;46.51
62710;BME280;48770;51.624;5.886;2022-09-09T12:43:50;100622.25;;;23.52;46.97
62710;BME280;48770;51.624;5.886;2022-09-09T12:46:40;100625.03;;;23.52;46.89
62710;BME280;48770;51.624;5.886;2022-09-09T12:49:35;100619.84;;;23.50;46.52
62710;BME280;48770;51.624;5.886;2022-09-09T12:52:27;100622.63;;;23.50;46.60
62710;BME280;48770;51.624;5.886;2022-09-09T12:54:55;100619.09;;;23.53;46.86
62710;BME280;48770;51.624;5.886;2022-09-09T12:57:23;100616.72;;;23.55;46.87
62710;BME280;48770;51.624;5.886;2022-09-09T12:59:50;100613.94;;;23.55;46.79
62710;BME280;48770;51.624;5.886;2022-09-09T13:02:24;100615.56;;;23.56;46.63
62710;BME280;48770;51.624;5.886;2022-09-09T13:04:50;100615.19;;;23.58;46.88
62710;BME280;48770;51.624;5.886;2022-09-09T13:07:18;100616.81;;;23.59;46.99
62710;BME280;48770;51.624;5.886;2022-09-09T13:09:45;100608.44;;;23.59;46.72
62710;BME280;48770;51.624;5.886;2022-09-09T13:12:15;100616.81;;;23.59;46.64
62710;BME280;48770;51.624;5.886;2022-09-09T13:14:44;100604.84;;;23.58;46.81
62710;BME280;48770;51.624;5.886;2022-09-09T13:17:19;100602.03;;;23.58;46.93
62710;BME280;48770;51.624;5.886;2022-09-09T13:19:45;100600.84;;;23.59;46.70
62710;BME280;48770;51.624;5.886;2022-09-09T13:22:21;100598.44;;;23.58;46.64
62710;BME280;48770;51.624;5.886;2022-09-09T13:24:47;100592.47;;;23.59;46.98
62710;BME280;48770;51.624;5.886;2022-09-09T13:27:35;100597.25;;;23.59;47.02
62710;BME280;48770;51.624;5.886;2022-09-09T13:30:20;100598.06;;;23.59;46.86
62710;BME280;48770;51.624;5.886;2022-09-09T13:32:59;100586.16;;;23.62;47.16
62710;BME280;48770;51.624;5.886;2022-09-09T13:35:26;100581.78;;;23.65;47.06
62710;BME280;48770;51.624;5.886;2022-09-09T13:37:52;100574.66;;;23.67;47.06
62710;BME280;48770;51.624;5.886;2022-09-09T13:40:19;100574.72;;;23.71;46.93
62710;BME280;48770;51.624;5.886;2022-09-09T13:42:45;100580.34;;;23.75;47.04
62710;BME280;48770;51.624;5.886;2022-09-09T13:45:25;100577.56;;;23.75;46.74
62710;BME280;48770;51.624;5.886;2022-09-09T13:47:54;100570.41;;;23.77;47.00
62710;BME280;48770;51.624;5.886;2022-09-09T13:50:21;100569.66;;;23.80;47.08
62710;BME280;48770;51.624;5.886;2022-09-09T13:52:48;100569.69;;;23.84;46.95
62710;BME280;48770;51.624;5.886;2022-09-09T13:55:16;100574.88;;;23.85;46.69
62710;BME280;48770;51.624;5.886;2022-09-09T13:58:35;100570.53;;;23.88;46.81
62710;BME280;48770;51.624;5.886;2022-09-09T14:00:35;100564.94;;;23.88;46.56
62710;BME280;48770;51.624;5.886;2022-09-09T14:03:01;100570.19;;;23.93;46.64
62710;BME280;48770;51.624;5.886;2022-09-09T14:05:27;100562.25;;;23.95;46.53
62710;BME280;48770;51.624;5.886;2022-09-09T14:07:53;100568.69;;;23.99;46.25
62710;BME280;48770;51.624;5.886;2022-09-09T14:10:19;100567.13;;;24.02;46.32
62710;BME280;48770;51.624;5.886;2022-09-09T14:12:45;100574.75;;;24.05;46.18
62710;BME280;48770;51.624;5.886;2022-09-09T14:15:11;100572.75;;;24.05;46.35
62710;BME280;48770;51.624;5.886;2022-09-09T14:17:37;100575.97;;;24.07;45.80
62710;BME280;48770;51.624;5.886;2022-09-09T14:20:06;100576.75;;;24.08;45.86
62710;BME280;48770;51.624;5.886;2022-09-09T14:22:36;100581.53;;;24.07;46.09
62710;BME280;48770;51.624;5.886;2022-09-09T14:25:02;100584.75;;;24.09;45.92
62710;BME280;48770;51.624;5.886;2022-09-09T14:27:28;100589.53;;;24.09;45.89
62710;BME280;48770;51.624;5.886;2022-09-09T14:29:55;100584.38;;;24.11;46.10
62710;BME280;48770;51.624;5.886;2022-09-09T14:32:20;100587.97;;;24.11;46.14
62710;BME280;48770;51.624;5.886;2022-09-09T14:34:46;100579.59;;;24.11;45.92
62710;BME280;48770;51.624;5.886;2022-09-09T14:37:15;100582.38;;;24.11;45.73
62710;BME280;48770;51.624;5.886;2022-09-09T14:39:40;100580.41;;;24.12;46.23
62710;BME280;48770;51.624;5.886;2022-09-09T14:42:06;100575.19;;;24.10;45.66
62710;BME280;48770;51.624;5.886;2022-09-09T14:44:31;100573.19;;;24.11;45.74